sensor_id;sensor_type;location;lat;lon;timestamp;P1;durP1;ratioP1;P2;durP2;ratioP2
22268;SDS011;11303;50.772;19.670;2022-12-18T00:00:28;48.95;;;20.48;;
22268;SDS011;11303;50.772;19.670;2022-12-18T00:02:30;44.03;;;19.27;;
22268;SDS011;11303;50.772;19.670;2022-12-18T00:04:32;48.90;;;21.50;;
22268;SDS011;11303;50.772;19.670;2022-12-18T00:06:34;46.75;;;20.08;;
22268;SDS011;11303;50.772;19.670;2022-12-18T00:08:36;46.45;;;19.88;;
22268;SDS011;11303;50.772;19.670;2022-12-18T00:10:37;46.35;;;20.42;;
22268;SDS011;11303;50.772;19.670;2022-12-18T00:12:39;43.88;;;19.48;;
22268;SDS011;11303;50.772;19.670;2022-12-18T00:14:40;53.70;;;21.73;;
22268;SDS011;11303;50.772;19.670;2022-12-18T00:16:45;51.25;;;21.67;;
22268;SDS011;11303;50.772;19.670;2022-12-18T00:18:47;52.15;;;19.58;;
22268;SDS011;11303;50.772;19.670;2022-12-18T00:20:50;55.38;;;22.20;;
22268;SDS011;11303;50.772;19.670;2022-12-18T00:22:52;60.53;;;19.90;;
22268;SDS011;11303;50.772;19.670;2022-12-18T00:24:54;49.63;;;20.50;;
22268;SDS011;11303;50.772;19.670;2022-12-18T00:26:55;50.42;;;19.10;;
22268;SDS011;11303;50.772;19.670;2022-12-18T00:29:01;58.35;;;23.45;;
22268;SDS011;11303;50.772;19.670;2022-12-18T00:31:09;58.55;;;23.05;;
22268;SDS011;11303;50.772;19.670;2022-12-18T00:33:13;47.60;;;19.92;;
22268;SDS011;11303;50.772;19.670;2022-12-18T00:35:14;49.72;;;20.33;;
22268;SDS011;11303;50.772;19.670;2022-12-18T00:37:16;56.50;;;21.65;;
22268;SDS011;11303;50.772;19.670;2022-12-18T00:39:20;95.22;;;34.75;;
22268;SDS011;11303;50.772;19.670;2022-12-18T00:41:22;65.93;;;25.52;;
22268;SDS011;11303;50.772;19.670;2022-12-18T00:43:43;60.72;;;22.77;;
22268;SDS011;11303;50.772;19.670;2022-12-18T00:45:44;60.40;;;24.65;;
22268;SDS011;11303;50.772;19.670;2022-12-18T00:47:46;63.15;;;23.15;;
22268;SDS011;11303;50.772;19.670;2022-12-18T00:49:48;80.30;;;29.85;;
22268;SDS011;11303;50.772;19.670;2022-12-18T00:51:49;84.95;;;30.90;;
22268;SDS011;11303;50.772;19.670;2022-12-18T00:53:51;74.88;;;26.48;;
22268;SDS011;11303;50.772;19.670;2022-12-18T00:55:53;66.05;;;25.40;;
22268;SDS011;11303;50.772;19.670;2022-12-18T00:57:54;70.25;;;27.10;;
22268;SDS011;11303;50.772;19.670;2022-12-18T00:59:56;65.45;;;24.60;;
22268;SDS011;11303;50.772;19.670;2022-12-18T01:01:57;75.88;;;26.58;;
22268;SDS011;11303;50.772;19.670;2022-12-18T01:04:00;62.28;;;26.73;;
22268;SDS011;11303;50.772;19.670;2022-12-18T01:06:10;59.67;;;22.58;;
22268;SDS011;11303;50.772;19.670;2022-12-18T01:08:12;57.88;;;22.65;;
22268;SDS011;11303;50.772;19.670;2022-12-18T01:10:14;66.35;;;26.08;;
22268;SDS011;11303;50.772;19.670;2022-12-18T01:12:16;73.60;;;27.50;;
22268;SDS011;11303;50.772;19.670;2022-12-18T01:14:17;58.60;;;23.63;;
22268;SDS011;11303;50.772;19.670;2022-12-18T01:16:19;72.35;;;26.88;;
22268;SDS011;11303;50.772;19.670;2022-12-18T01:18:20;58.05;;;23.75;;
22268;SDS011;11303;50.772;19.670;2022-12-18T01:20:22;74.78;;;27.70;;
22268;SDS011;11303;50.772;19.670;2022-12-18T01:22:23;78.60;;;29.33;;
22268;SDS011;11303;50.772;19.670;2022-12-18T01:24:25;72.55;;;26.92;;
22268;SDS011;11303;50.772;19.670;2022-12-18T01:26:26;76.97;;;28.02;;
22268;SDS011;11303;50.772;19.670;2022-12-18T01:28:30;73.22;;;28.20;;
22268;SDS011;11303;50.772;19.670;2022-12-18T01:30:32;90.55;;;32.45;;
22268;SDS011;11303;50.772;19.670;2022-12-18T01:32:33;73.63;;;25.95;;
22268;SDS011;11303;50.772;19.670;2022-12-18T01:34:35;155.40;;;51.50;;
22268;SDS011;11303;50.772;19.670;2022-12-18T01:36:38;206.57;;;66.47;;
22268;SDS011;11303;50.772;19.670;2022-12-18T01:38:40;96.20;;;35.00;;
22268;SDS011;11303;50.772;19.670;2022-12-18T01:40:41;108.70;;;35.38;;
22268;SDS011;11303;50.772;19.670;2022-12-18T01:42:43;113.40;;;39.67;;
22268;SDS011;11303;50.772;19.670;2022-12-18T01:44:52;80.43;;;28.73;;
22268;SDS011;11303;50.772;19.670;2022-12-18T01:47:09;101.20;;;35.58;;
22268;SDS011;11303;50.772;19.670;2022-12-18T01:49:18;78.57;;;29.07;;
22268;SDS011;11303;50.772;19.670;2022-12-18T01:51:19;84.82;;;30.55;;
22268;SDS011;11303;50.772;19.670;2022-12-18T01:53:22;68.75;;;27.52;;
22268;SDS011;11303;50.772;19.670;2022-12-18T01:55:25;67.60;;;28.80;;
22268;SDS011;11303;50.772;19.670;2022-12-18T01:57:30;62.80;;;26.85;;
22268;SDS011;11303;50.772;19.670;2022-12-18T01:59:32;57.17;;;23.67;;
22268;SDS011;11303;50.772;19.670;2022-12-18T02:01:35;59.17;;;21.58;;
22268;SDS011;11303;50.772;19.670;2022-12-18T02:03:42;81.07;;;32.08;;
22268;SDS011;11303;50.772;19.670;2022-12-18T02:06:06;61.75;;;24.35;;
22268;SDS011;11303;50.772;19.670;2022-12-18T02:10:31;59.42;;;24.02;;
22268;SDS011;11303;50.772;19.670;2022-12-18T02:12:43;61.15;;;25.27;;
22268;SDS011;11303;50.772;19.670;2022-12-18T02:15:00;57.22;;;23.85;;
22268;SDS011;11303;50.772;19.670;2022-12-18T02:21:55;65.68;;;26.90;;
22268;SDS011;11303;50.772;19.670;2022-12-18T02:28:29;67.78;;;26.38;;
22268;SDS011;11303;50.772;19.670;2022-12-18T02:30:34;60.13;;;22.17;;
22268;SDS011;11303;50.772;19.670;2022-12-18T02:32:40;47.75;;;20.08;;
22268;SDS011;11303;50.772;19.670;2022-12-18T02:34:45;48.95;;;20.27;;
22268;SDS011;11303;50.772;19.670;2022-12-18T02:36:47;55.13;;;22.40;;
22268;SDS011;11303;50.772;19.670;2022-12-18T02:38:50;44.50;;;18.13;;
22268;SDS011;11303;50.772;19.670;2022-12-18T02:40:53;67.45;;;27.30;;
22268;SDS011;11303;50.772;19.670;2022-12-18T02:43:01;53.28;;;23.80;;
22268;SDS011;11303;50.772;19.670;2022-12-18T02:45:04;50.33;;;20.83;;
22268;SDS011;11303;50.772;19.670;2022-12-18T02:47:08;48.83;;;20.63;;
22268;SDS011;11303;50.772;19.670;2022-12-18T02:51:24;53.72;;;22.80;;
22268;SDS011;11303;50.772;19.670;2022-12-18T02:53:36;52.65;;;20.17;;
22268;SDS011;11303;50.772;19.670;2022-12-18T02:55:51;48.55;;;19.25;;
22268;SDS011;11303;50.772;19.670;2022-12-18T03:00:18;44.72;;;20.10;;
22268;SDS011;11303;50.772;19.670;2022-12-18T03:02:37;51.42;;;21.70;;
22268;SDS011;11303;50.772;19.670;2022-12-18T03:05:07;47.80;;;20.10;;
22268;SDS011;11303;50.772;19.670;2022-12-18T03:07:11;49.08;;;20.58;;
22268;SDS011;11303;50.772;19.670;2022-12-18T03:09:21;47.08;;;18.50;;
22268;SDS011;11303;50.772;19.670;2022-12-18T03:11:27;54.80;;;21.65;;
22268;SDS011;11303;50.772;19.670;2022-12-18T03:13:50;44.75;;;21.17;;
22268;SDS011;11303;50.772;19.670;2022-12-18T03:15:57;48.95;;;19.73;;
22268;SDS011;11303;50.772;19.670;2022-12-18T03:18:05;56.70;;;22.45;;
22268;SDS011;11303;50.772;19.670;2022-12-18T03:20:16;51.35;;;20.40;;
22268;SDS011;11303;50.772;19.670;2022-12-18T03:22:20;49.80;;;20.63;;
22268;SDS011;11303;50.772;19.670;2022-12-18T03:24:24;53.13;;;21.65;;
22268;SDS011;11303;50.772;19.670;2022-12-18T03:26:28;51.53;;;20.55;;
22268;SDS011;11303;50.772;19.670;2022-12-18T03:28:30;50.75;;;20.83;;
22268;SDS011;11303;50.772;19.670;2022-12-18T03:30:37;50.97;;;22.15;;
22268;SDS011;11303;50.772;19.670;2022-12-18T03:32:44;52.42;;;21.48;;
22268;SDS011;11303;50.772;19.670;2022-12-18T03:34:48;49.47;;;22.98;;
22268;SDS011;11303;50.772;19.670;2022-12-18T03:36:52;55.15;;;23.83;;
22268;SDS011;11303;50.772;19.670;2022-12-18T03:38:53;64.28;;;27.73;;
22268;SDS011;11303;50.772;19.670;2022-12-18T03:43:27;77.18;;;34.42;;
22268;SDS011;11303;50.772;19.670;2022-12-18T03:45:53;66.97;;;25.50;;
22268;SDS011;11303;50.772;19.670;2022-12-18T03:48:01;60.92;;;25.00;;
22268;SDS011;11303;50.772;19.670;2022-12-18T03:53:14;61.15;;;25.10;;
22268;SDS011;11303;50.772;19.670;2022-12-18T03:55:23;59.20;;;25.30;;
22268;SDS011;11303;50.772;19.670;2022-12-18T03:57:28;60.63;;;24.70;;
22268;SDS011;11303;50.772;19.670;2022-12-18T03:59:32;54.95;;;23.83;;
22268;SDS011;11303;50.772;19.670;2022-12-18T04:01:37;67.57;;;25.60;;
22268;SDS011;11303;50.772;19.670;2022-12-18T04:03:43;61.65;;;23.90;;
22268;SDS011;11303;50.772;19.670;2022-12-18T04:05:48;58.25;;;25.65;;
22268;SDS011;11303;50.772;19.670;2022-12-18T04:07:52;71.22;;;29.45;;
22268;SDS011;11303;50.772;19.670;2022-12-18T04:09:55;68.03;;;30.05;;
22268;SDS011;11303;50.772;19.670;2022-12-18T04:11:59;69.28;;;29.83;;
22268;SDS011;11303;50.772;19.670;2022-12-18T04:14:01;62.92;;;24.85;;
22268;SDS011;11303;50.772;19.670;2022-12-18T04:16:07;72.28;;;26.00;;
22268;SDS011;11303;50.772;19.670;2022-12-18T04:18:10;51.30;;;21.83;;
22268;SDS011;11303;50.772;19.670;2022-12-18T04:20:12;53.92;;;21.58;;
22268;SDS011;11303;50.772;19.670;2022-12-18T04:22:13;52.65;;;22.00;;
22268;SDS011;11303;50.772;19.670;2022-12-18T04:24:14;50.83;;;22.00;;
22268;SDS011;11303;50.772;19.670;2022-12-18T04:26:16;59.80;;;23.60;;
22268;SDS011;11303;50.772;19.670;2022-12-18T04:28:17;52.13;;;21.42;;
22268;SDS011;11303;50.772;19.670;2022-12-18T04:30:19;55.20;;;20.52;;
22268;SDS011;11303;50.772;19.670;2022-12-18T04:32:21;50.30;;;21.77;;
22268;SDS011;11303;50.772;19.670;2022-12-18T04:34:22;52.58;;;20.80;;
22268;SDS011;11303;50.772;19.670;2022-12-18T04:36:24;55.22;;;21.85;;
22268;SDS011;11303;50.772;19.670;2022-12-18T04:38:25;59.00;;;22.77;;
22268;SDS011;11303;50.772;19.670;2022-12-18T04:40:27;60.53;;;22.85;;
22268;SDS011;11303;50.772;19.670;2022-12-18T04:42:28;58.42;;;23.13;;
22268;SDS011;11303;50.772;19.670;2022-12-18T04:44:30;51.47;;;22.30;;
22268;SDS011;11303;50.772;19.670;2022-12-18T04:46:31;58.30;;;22.35;;
22268;SDS011;11303;50.772;19.670;2022-12-18T04:48:33;57.85;;;23.58;;
22268;SDS011;11303;50.772;19.670;2022-12-18T04:50:35;61.95;;;24.33;;
22268;SDS011;11303;50.772;19.670;2022-12-18T04:52:36;58.83;;;22.65;;
22268;SDS011;11303;50.772;19.670;2022-12-18T04:54:38;59.38;;;24.42;;
22268;SDS011;11303;50.772;19.670;2022-12-18T04:56:39;68.93;;;28.85;;
22268;SDS011;11303;50.772;19.670;2022-12-18T04:58:41;82.43;;;38.25;;
22268;SDS011;11303;50.772;19.670;2022-12-18T05:00:44;84.82;;;38.15;;
22268;SDS011;11303;50.772;19.670;2022-12-18T05:02:46;57.80;;;23.67;;
22268;SDS011;11303;50.772;19.670;2022-12-18T05:04:48;58.45;;;27.13;;
22268;SDS011;11303;50.772;19.670;2022-12-18T05:06:49;68.18;;;27.48;;
22268;SDS011;11303;50.772;19.670;2022-12-18T05:08:51;65.57;;;25.88;;
22268;SDS011;11303;50.772;19.670;2022-12-18T05:10:59;64.95;;;24.92;;
22268;SDS011;11303;50.772;19.670;2022-12-18T05:13:01;55.53;;;22.48;;
22268;SDS011;11303;50.772;19.670;2022-12-18T05:15:02;62.05;;;23.75;;
22268;SDS011;11303;50.772;19.670;2022-12-18T05:17:04;61.95;;;25.10;;
22268;SDS011;11303;50.772;19.670;2022-12-18T05:19:06;72.57;;;28.25;;
22268;SDS011;11303;50.772;19.670;2022-12-18T05:21:07;65.47;;;26.60;;
22268;SDS011;11303;50.772;19.670;2022-12-18T05:23:09;100.07;;;37.10;;
22268;SDS011;11303;50.772;19.670;2022-12-18T05:25:10;164.13;;;59.72;;
22268;SDS011;11303;50.772;19.670;2022-12-18T05:27:12;89.65;;;37.33;;
22268;SDS011;11303;50.772;19.670;2022-12-18T05:29:13;104.90;;;41.05;;
22268;SDS011;11303;50.772;19.670;2022-12-18T05:31:15;76.57;;;29.83;;
22268;SDS011;11303;50.772;19.670;2022-12-18T05:33:17;63.45;;;26.67;;
22268;SDS011;11303;50.772;19.670;2022-12-18T05:35:19;85.50;;;34.58;;
22268;SDS011;11303;50.772;19.670;2022-12-18T05:37:21;107.10;;;42.63;;
22268;SDS011;11303;50.772;19.670;2022-12-18T05:39:22;104.82;;;44.15;;
22268;SDS011;11303;50.772;19.670;2022-12-18T05:41:24;84.70;;;37.75;;
22268;SDS011;11303;50.772;19.670;2022-12-18T05:43:26;93.28;;;38.35;;
22268;SDS011;11303;50.772;19.670;2022-12-18T05:45:28;137.40;;;57.33;;
22268;SDS011;11303;50.772;19.670;2022-12-18T05:47:29;80.80;;;35.13;;
22268;SDS011;11303;50.772;19.670;2022-12-18T05:49:31;188.07;;;82.25;;
22268;SDS011;11303;50.772;19.670;2022-12-18T05:51:32;124.35;;;50.55;;
22268;SDS011;11303;50.772;19.670;2022-12-18T05:53:34;120.38;;;53.33;;
22268;SDS011;11303;50.772;19.670;2022-12-18T05:55:38;39.70;;;18.48;;
22268;SDS011;11303;50.772;19.670;2022-12-18T05:57:40;64.45;;;24.45;;
22268;SDS011;11303;50.772;19.670;2022-12-18T05:59:42;72.10;;;29.65;;
22268;SDS011;11303;50.772;19.670;2022-12-18T06:01:43;68.53;;;27.00;;
22268;SDS011;11303;50.772;19.670;2022-12-18T06:03:45;76.88;;;32.45;;
22268;SDS011;11303;50.772;19.670;2022-12-18T06:05:48;80.57;;;32.35;;
22268;SDS011;11303;50.772;19.670;2022-12-18T06:07:49;103.60;;;45.20;;
22268;SDS011;11303;50.772;19.670;2022-12-18T06:09:50;108.05;;;42.75;;
22268;SDS011;11303;50.772;19.670;2022-12-18T06:11:52;98.88;;;39.53;;
22268;SDS011;11303;50.772;19.670;2022-12-18T06:13:54;75.05;;;29.10;;
22268;SDS011;11303;50.772;19.670;2022-12-18T06:16:01;61.03;;;27.50;;
22268;SDS011;11303;50.772;19.670;2022-12-18T06:18:04;77.13;;;31.08;;
22268;SDS011;11303;50.772;19.670;2022-12-18T06:20:05;71.80;;;29.08;;
22268;SDS011;11303;50.772;19.670;2022-12-18T06:22:08;56.97;;;25.38;;
22268;SDS011;11303;50.772;19.670;2022-12-18T06:24:09;70.10;;;29.45;;
22268;SDS011;11303;50.772;19.670;2022-12-18T06:26:11;91.18;;;39.08;;
22268;SDS011;11303;50.772;19.670;2022-12-18T06:28:13;103.30;;;45.33;;
22268;SDS011;11303;50.772;19.670;2022-12-18T06:30:15;92.47;;;38.67;;
22268;SDS011;11303;50.772;19.670;2022-12-18T06:32:17;75.13;;;31.42;;
22268;SDS011;11303;50.772;19.670;2022-12-18T06:34:18;66.82;;;30.55;;
22268;SDS011;11303;50.772;19.670;2022-12-18T06:36:20;60.10;;;25.55;;
22268;SDS011;11303;50.772;19.670;2022-12-18T06:38:22;54.65;;;21.55;;
22268;SDS011;11303;50.772;19.670;2022-12-18T06:40:23;50.15;;;20.88;;
22268;SDS011;11303;50.772;19.670;2022-12-18T06:42:25;49.13;;;21.30;;
22268;SDS011;11303;50.772;19.670;2022-12-18T06:44:26;54.15;;;22.25;;
22268;SDS011;11303;50.772;19.670;2022-12-18T06:46:28;52.30;;;21.00;;
22268;SDS011;11303;50.772;19.670;2022-12-18T06:48:29;57.05;;;22.80;;
22268;SDS011;11303;50.772;19.670;2022-12-18T06:50:31;57.15;;;24.02;;
22268;SDS011;11303;50.772;19.670;2022-12-18T06:52:33;58.83;;;25.05;;
22268;SDS011;11303;50.772;19.670;2022-12-18T06:54:34;56.72;;;24.23;;
22268;SDS011;11303;50.772;19.670;2022-12-18T06:56:36;50.08;;;23.52;;
22268;SDS011;11303;50.772;19.670;2022-12-18T06:58:38;54.33;;;23.15;;
22268;SDS011;11303;50.772;19.670;2022-12-18T07:00:40;55.55;;;22.55;;
22268;SDS011;11303;50.772;19.670;2022-12-18T07:02:42;57.10;;;24.17;;
22268;SDS011;11303;50.772;19.670;2022-12-18T07:04:44;55.92;;;22.58;;
22268;SDS011;11303;50.772;19.670;2022-12-18T07:06:45;58.05;;;25.40;;
22268;SDS011;11303;50.772;19.670;2022-12-18T07:08:47;80.22;;;37.58;;
22268;SDS011;11303;50.772;19.670;2022-12-18T07:10:49;118.93;;;57.33;;
22268;SDS011;11303;50.772;19.670;2022-12-18T07:12:56;109.53;;;49.55;;
22268;SDS011;11303;50.772;19.670;2022-12-18T07:14:57;109.35;;;45.47;;
22268;SDS011;11303;50.772;19.670;2022-12-18T07:16:59;90.07;;;39.55;;
22268;SDS011;11303;50.772;19.670;2022-12-18T07:19:00;123.05;;;49.58;;
22268;SDS011;11303;50.772;19.670;2022-12-18T07:21:05;98.18;;;46.03;;
22268;SDS011;11303;50.772;19.670;2022-12-18T07:23:08;114.40;;;52.83;;
22268;SDS011;11303;50.772;19.670;2022-12-18T07:25:09;103.22;;;45.13;;
22268;SDS011;11303;50.772;19.670;2022-12-18T07:27:11;88.10;;;37.67;;
22268;SDS011;11303;50.772;19.670;2022-12-18T07:29:12;78.22;;;35.10;;
22268;SDS011;11303;50.772;19.670;2022-12-18T07:31:15;77.25;;;35.95;;
22268;SDS011;11303;50.772;19.670;2022-12-18T07:33:18;129.55;;;53.92;;
22268;SDS011;11303;50.772;19.670;2022-12-18T07:35:20;203.68;;;79.20;;
22268;SDS011;11303;50.772;19.670;2022-12-18T07:37:25;210.07;;;81.75;;
22268;SDS011;11303;50.772;19.670;2022-12-18T07:39:27;275.13;;;98.15;;
22268;SDS011;11303;50.772;19.670;2022-12-18T07:41:28;239.95;;;84.82;;
22268;SDS011;11303;50.772;19.670;2022-12-18T07:43:30;231.65;;;76.75;;
22268;SDS011;11303;50.772;19.670;2022-12-18T07:45:32;224.13;;;73.47;;
22268;SDS011;11303;50.772;19.670;2022-12-18T07:47:34;266.75;;;80.55;;
22268;SDS011;11303;50.772;19.670;2022-12-18T07:49:37;374.45;;;111.97;;
22268;SDS011;11303;50.772;19.670;2022-12-18T07:51:38;340.13;;;111.95;;
22268;SDS011;11303;50.772;19.670;2022-12-18T07:53:40;231.57;;;73.25;;
22268;SDS011;11303;50.772;19.670;2022-12-18T07:55:43;272.90;;;85.93;;
22268;SDS011;11303;50.772;19.670;2022-12-18T07:58:04;272.25;;;81.85;;
22268;SDS011;11303;50.772;19.670;2022-12-18T08:00:06;402.92;;;136.88;;
22268;SDS011;11303;50.772;19.670;2022-12-18T08:02:09;319.65;;;104.15;;
22268;SDS011;11303;50.772;19.670;2022-12-18T08:04:12;363.33;;;105.68;;
22268;SDS011;11303;50.772;19.670;2022-12-18T08:06:14;406.00;;;115.93;;
22268;SDS011;11303;50.772;19.670;2022-12-18T08:08:15;502.08;;;156.73;;
22268;SDS011;11303;50.772;19.670;2022-12-18T08:10:16;391.75;;;106.90;;
22268;SDS011;11303;50.772;19.670;2022-12-18T08:12:18;173.05;;;54.13;;
22268;SDS011;11303;50.772;19.670;2022-12-18T08:14:19;107.18;;;37.97;;
22268;SDS011;11303;50.772;19.670;2022-12-18T08:16:22;246.63;;;93.68;;
22268;SDS011;11303;50.772;19.670;2022-12-18T08:18:24;232.32;;;72.80;;
22268;SDS011;11303;50.772;19.670;2022-12-18T08:20:26;177.90;;;59.13;;
22268;SDS011;11303;50.772;19.670;2022-12-18T08:22:28;168.50;;;58.97;;
22268;SDS011;11303;50.772;19.670;2022-12-18T08:24:29;234.15;;;76.03;;
22268;SDS011;11303;50.772;19.670;2022-12-18T08:26:31;132.90;;;51.33;;
22268;SDS011;11303;50.772;19.670;2022-12-18T08:28:33;138.75;;;50.78;;
22268;SDS011;11303;50.772;19.670;2022-12-18T08:30:35;88.50;;;40.08;;
22268;SDS011;11303;50.772;19.670;2022-12-18T08:32:37;78.72;;;36.58;;
22268;SDS011;11303;50.772;19.670;2022-12-18T08:34:39;51.50;;;22.75;;
22268;SDS011;11303;50.772;19.670;2022-12-18T08:36:40;56.20;;;24.70;;
22268;SDS011;11303;50.772;19.670;2022-12-18T08:38:42;69.75;;;24.92;;
22268;SDS011;11303;50.772;19.670;2022-12-18T08:40:43;65.05;;;25.83;;
22268;SDS011;11303;50.772;19.670;2022-12-18T08:42:45;77.65;;;32.45;;
22268;SDS011;11303;50.772;19.670;2022-12-18T08:45:07;72.28;;;31.88;;
22268;SDS011;11303;50.772;19.670;2022-12-18T08:47:09;93.40;;;50.50;;
22268;SDS011;11303;50.772;19.670;2022-12-18T08:49:10;75.78;;;32.15;;
22268;SDS011;11303;50.772;19.670;2022-12-18T08:51:13;63.25;;;32.08;;
22268;SDS011;11303;50.772;19.670;2022-12-18T08:53:17;65.50;;;31.48;;
22268;SDS011;11303;50.772;19.670;2022-12-18T08:55:19;115.78;;;60.30;;
22268;SDS011;11303;50.772;19.670;2022-12-18T08:57:21;55.92;;;26.40;;
22268;SDS011;11303;50.772;19.670;2022-12-18T08:59:23;51.88;;;25.40;;
22268;SDS011;11303;50.772;19.670;2022-12-18T09:01:24;68.20;;;33.47;;
22268;SDS011;11303;50.772;19.670;2022-12-18T09:03:26;101.72;;;55.15;;
22268;SDS011;11303;50.772;19.670;2022-12-18T09:05:28;94.15;;;44.70;;
22268;SDS011;11303;50.772;19.670;2022-12-18T09:07:29;108.88;;;41.85;;
22268;SDS011;11303;50.772;19.670;2022-12-18T09:09:30;100.05;;;38.10;;
22268;SDS011;11303;50.772;19.670;2022-12-18T09:11:32;114.57;;;41.45;;
22268;SDS011;11303;50.772;19.670;2022-12-18T09:13:34;59.50;;;24.75;;
22268;SDS011;11303;50.772;19.670;2022-12-18T09:15:40;84.78;;;31.38;;
22268;SDS011;11303;50.772;19.670;2022-12-18T09:17:46;68.32;;;31.48;;
22268;SDS011;11303;50.772;19.670;2022-12-18T09:19:47;79.57;;;34.92;;
22268;SDS011;11303;50.772;19.670;2022-12-18T09:21:49;96.35;;;40.38;;
22268;SDS011;11303;50.772;19.670;2022-12-18T09:23:50;66.57;;;26.45;;
22268;SDS011;11303;50.772;19.670;2022-12-18T09:25:58;51.10;;;23.30;;
22268;SDS011;11303;50.772;19.670;2022-12-18T09:28:00;77.72;;;31.45;;
22268;SDS011;11303;50.772;19.670;2022-12-18T09:30:02;70.97;;;30.17;;
22268;SDS011;11303;50.772;19.670;2022-12-18T09:32:04;106.60;;;43.33;;
22268;SDS011;11303;50.772;19.670;2022-12-18T09:34:06;82.28;;;33.40;;
22268;SDS011;11303;50.772;19.670;2022-12-18T09:36:09;82.13;;;31.75;;
22268;SDS011;11303;50.772;19.670;2022-12-18T09:38:14;60.08;;;27.08;;
22268;SDS011;11303;50.772;19.670;2022-12-18T09:40:19;80.97;;;36.95;;
22268;SDS011;11303;50.772;19.670;2022-12-18T09:42:22;59.00;;;24.98;;
22268;SDS011;11303;50.772;19.670;2022-12-18T09:44:35;54.92;;;25.38;;
22268;SDS011;11303;50.772;19.670;2022-12-18T09:46:50;51.45;;;24.33;;
22268;SDS011;11303;50.772;19.670;2022-12-18T09:48:54;46.00;;;20.88;;
22268;SDS011;11303;50.772;19.670;2022-12-18T09:51:02;48.30;;;20.15;;
22268;SDS011;11303;50.772;19.670;2022-12-18T09:53:14;52.53;;;24.70;;
22268;SDS011;11303;50.772;19.670;2022-12-18T09:57:39;45.95;;;23.48;;
22268;SDS011;11303;50.772;19.670;2022-12-18T09:59:47;35.80;;;16.48;;
22268;SDS011;11303;50.772;19.670;2022-12-18T10:01:54;46.30;;;19.67;;
22268;SDS011;11303;50.772;19.670;2022-12-18T10:03:56;51.00;;;21.63;;
22268;SDS011;11303;50.772;19.670;2022-12-18T10:06:14;37.15;;;17.20;;
22268;SDS011;11303;50.772;19.670;2022-12-18T10:08:35;40.35;;;16.40;;
22268;SDS011;11303;50.772;19.670;2022-12-18T10:13:15;38.33;;;16.27;;
22268;SDS011;11303;50.772;19.670;2022-12-18T10:15:27;47.38;;;16.88;;
22268;SDS011;11303;50.772;19.670;2022-12-18T10:17:51;55.50;;;24.55;;
22268;SDS011;11303;50.772;19.670;2022-12-18T10:22:20;86.05;;;38.00;;
22268;SDS011;11303;50.772;19.670;2022-12-18T10:27:04;35.67;;;15.15;;
22268;SDS011;11303;50.772;19.670;2022-12-18T10:29:14;498.80;;;289.38;;
22268;SDS011;11303;50.772;19.670;2022-12-18T10:31:17;463.80;;;284.90;;
22268;SDS011;11303;50.772;19.670;2022-12-18T10:33:27;128.80;;;72.32;;
22268;SDS011;11303;50.772;19.670;2022-12-18T10:35:31;184.10;;;98.57;;
22268;SDS011;11303;50.772;19.670;2022-12-18T10:37:32;108.47;;;57.03;;
22268;SDS011;11303;50.772;19.670;2022-12-18T10:39:34;118.95;;;61.97;;
22268;SDS011;11303;50.772;19.670;2022-12-18T10:41:35;69.78;;;36.88;;
22268;SDS011;11303;50.772;19.670;2022-12-18T10:43:38;49.53;;;23.50;;
22268;SDS011;11303;50.772;19.670;2022-12-18T10:45:41;55.53;;;26.85;;
22268;SDS011;11303;50.772;19.670;2022-12-18T10:47:43;71.95;;;37.22;;
22268;SDS011;11303;50.772;19.670;2022-12-18T10:49:48;66.93;;;36.03;;
22268;SDS011;11303;50.772;19.670;2022-12-18T10:54:21;36.60;;;14.65;;
22268;SDS011;11303;50.772;19.670;2022-12-18T10:56:24;40.17;;;16.45;;
22268;SDS011;11303;50.772;19.670;2022-12-18T10:58:34;40.15;;;17.30;;
22268;SDS011;11303;50.772;19.670;2022-12-18T11:00:38;43.45;;;18.83;;
22268;SDS011;11303;50.772;19.670;2022-12-18T11:02:39;44.05;;;18.27;;
22268;SDS011;11303;50.772;19.670;2022-12-18T11:04:49;43.40;;;18.20;;
22268;SDS011;11303;50.772;19.670;2022-12-18T11:06:59;52.90;;;23.73;;
22268;SDS011;11303;50.772;19.670;2022-12-18T11:09:04;61.33;;;23.83;;
22268;SDS011;11303;50.772;19.670;2022-12-18T11:11:22;44.38;;;20.58;;
22268;SDS011;11303;50.772;19.670;2022-12-18T11:13:25;58.80;;;28.10;;
22268;SDS011;11303;50.772;19.670;2022-12-18T11:15:29;43.65;;;18.50;;
22268;SDS011;11303;50.772;19.670;2022-12-18T11:17:35;32.78;;;14.70;;
22268;SDS011;11303;50.772;19.670;2022-12-18T11:19:37;35.97;;;14.45;;
22268;SDS011;11303;50.772;19.670;2022-12-18T11:21:41;39.78;;;15.15;;
22268;SDS011;11303;50.772;19.670;2022-12-18T11:25:50;32.50;;;13.25;;
22268;SDS011;11303;50.772;19.670;2022-12-18T11:27:56;42.33;;;17.88;;
22268;SDS011;11303;50.772;19.670;2022-12-18T11:30:21;33.53;;;14.70;;
22268;SDS011;11303;50.772;19.670;2022-12-18T11:32:35;43.50;;;18.73;;
22268;SDS011;11303;50.772;19.670;2022-12-18T11:34:39;43.53;;;18.98;;
22268;SDS011;11303;50.772;19.670;2022-12-18T11:36:47;60.97;;;25.45;;
22268;SDS011;11303;50.772;19.670;2022-12-18T11:38:50;32.70;;;15.48;;
22268;SDS011;11303;50.772;19.670;2022-12-18T11:41:03;32.22;;;13.70;;
22268;SDS011;11303;50.772;19.670;2022-12-18T11:43:23;36.63;;;15.57;;
22268;SDS011;11303;50.772;19.670;2022-12-18T11:45:30;32.20;;;13.88;;
22268;SDS011;11303;50.772;19.670;2022-12-18T11:52:51;53.58;;;21.45;;
22268;SDS011;11303;50.772;19.670;2022-12-18T11:55:01;180.85;;;55.95;;
22268;SDS011;11303;50.772;19.670;2022-12-18T11:57:13;69.38;;;25.70;;
22268;SDS011;11303;50.772;19.670;2022-12-18T12:06:06;86.47;;;34.35;;
22268;SDS011;11303;50.772;19.670;2022-12-18T12:08:29;36.10;;;15.98;;
22268;SDS011;11303;50.772;19.670;2022-12-18T12:13:11;59.20;;;21.25;;
22268;SDS011;11303;50.772;19.670;2022-12-18T12:23:02;148.38;;;64.10;;
22268;SDS011;11303;50.772;19.670;2022-12-18T12:25:20;128.38;;;57.28;;
22268;SDS011;11303;50.772;19.670;2022-12-18T12:32:29;76.07;;;31.88;;
22268;SDS011;11303;50.772;19.670;2022-12-18T12:39:16;61.40;;;26.75;;
22268;SDS011;11303;50.772;19.670;2022-12-18T12:41:24;55.15;;;24.67;;
22268;SDS011;11303;50.772;19.670;2022-12-18T12:43:47;80.07;;;29.73;;
22268;SDS011;11303;50.772;19.670;2022-12-18T12:47:55;80.10;;;29.42;;
22268;SDS011;11303;50.772;19.670;2022-12-18T12:50:00;68.47;;;28.65;;
22268;SDS011;11303;50.772;19.670;2022-12-18T12:52:10;62.33;;;27.85;;
22268;SDS011;11303;50.772;19.670;2022-12-18T12:54:16;62.03;;;26.17;;
22268;SDS011;11303;50.772;19.670;2022-12-18T12:56:26;95.10;;;38.13;;
22268;SDS011;11303;50.772;19.670;2022-12-18T12:58:57;65.30;;;26.00;;
22268;SDS011;11303;50.772;19.670;2022-12-18T13:05:58;61.35;;;22.50;;
22268;SDS011;11303;50.772;19.670;2022-12-18T13:12:19;44.20;;;17.48;;
22268;SDS011;11303;50.772;19.670;2022-12-18T13:14:39;38.60;;;16.98;;